North Sterling, Connecticut
Current Conditions -  °F | °C
As of 6:52 PM on Sunday 25 Jan 2015 (Local Time) from KIJD Reporting Station
Clear Clear  
Wind Chill: 20°   Ceiling: Unl
Heat Index: 27°   Visibility: 10mi
Dew Point:   Wind: 6mph
Humidity: 39%   Direction: 20°NNE
Pressure: 29.91"   Gusts: NA
Location:  41.732°N, 71.8171°W
Report Text: KIJD 252352Z AUTO 02005KT 10SM CLR M03/M15 A2991 RMK AO2 SLP132 T10281150 10022 21028 53045 $
Loading
Personal Weather Stations






























Interactive Weather Map New forecast layout! Learn more

10-Day Weather Forecast

Advertisements
Track Severe Weather on mobile